Time;durP1;ratioP1;P1;durP2;ratioP2;P2;SDS_P1;SDS_P2;PMS_P1;PMS_P2;Temp;Humidity;BMP_temperature;BMP_pressure;BME280_temperature;BME280_humidity;BME280_pressure;Samples;Min_cycle;Max_cycle;Signal;HPM_P1;HPM_P2
2022/07/08 00:02:17;;;;;;;2.83;1.30;;;;;;;12.38;100.00;103077.91;5045250;28;20102;-76
2022/07/08 00:04:43;;;;;;;3.70;1.10;;;;;;;12.34;100.00;103071.94;5030491;28;20123;-74
2022/07/08 00:07:08;;;;;;;1.98;1.20;;;;;;;12.38;100.00;103072.53;5058083;28;20112;-74
2022/07/08 00:09:34;;;;;;;2.28;1.33;;;;;;;12.37;100.00;103068.97;5043618;28;20120;-73
2022/07/08 00:11:59;;;;;;;3.63;1.38;;;;;;;12.41;100.00;103064.16;5045273;28;20469;-76
2022/07/08 00:14:25;;;;;;;1.90;1.10;;;;;;;12.42;100.00;103068.59;5042825;28;20735;-74
2022/07/08 00:16:51;;;;;;;1.80;1.00;;;;;;;12.47;100.00;103061.81;5060449;28;20044;-74
2022/07/08 00:19:19;;;;;;;2.60;1.50;;;;;;;12.51;100.00;103062.38;5051195;28;20040;-74
2022/07/08 00:21:46;;;;;;;3.35;1.35;;;;;;;12.54;100.00;103062.13;5027616;28;20036;-74
2022/07/08 00:24:12;;;;;;;3.38;1.55;;;;;;;12.54;100.00;103054.03;5043941;28;20037;-75
2022/07/08 00:26:38;;;;;;;2.60;1.33;;;;;;;12.53;100.00;103058.56;5061348;28;20034;-74
2022/07/08 00:29:05;;;;;;;4.35;1.60;;;;;;;12.50;100.00;103049.91;5047217;28;20543;-74
2022/07/08 00:31:30;;;;;;;3.00;1.50;;;;;;;12.51;100.00;103059.69;5066338;28;20028;-74
2022/07/08 00:33:56;;;;;;;2.58;1.10;;;;;;;12.48;100.00;103051.88;5060036;28;20047;-75
2022/07/08 00:36:22;;;;;;;2.22;1.23;;;;;;;12.44;100.00;103050.44;5061324;28;20033;-75
2022/07/08 00:38:47;;;;;;;2.17;1.05;;;;;;;12.43;100.00;103046.84;5064815;28;20020;-74
2022/07/08 00:41:14;;;;;;;3.17;0.85;;;;;;;12.45;100.00;103057.53;5035187;28;20488;-74
2022/07/08 00:43:42;;;;;;;2.28;1.00;;;;;;;12.49;100.00;103059.84;5055514;28;20059;-75
2022/07/08 00:46:08;;;;;;;2.28;1.27;;;;;;;12.47;100.00;103058.25;5034565;28;20044;-74
2022/07/08 00:48:34;;;;;;;1.13;0.63;;;;;;;12.48;100.00;103068.06;5065683;28;20025;-76
2022/07/08 00:51:03;;;;;;;1.35;0.77;;;;;;;12.42;100.00;103058.66;5051287;28;20078;-74
2022/07/08 00:53:30;;;;;;;1.45;0.85;;;;;;;12.37;100.00;103060.03;5048948;28;20060;-75
2022/07/08 00:55:56;;;;;;;0.68;0.60;;;;;;;12.32;100.00;103063.97;5049639;28;20037;-74
2022/07/08 00:58:21;;;;;;;0.90;0.60;;;;;;;12.26;100.00;103058.25;5054670;28;20051;-74
2022/07/08 01:00:47;;;;;;;1.50;0.50;;;;;;;12.24;100.00;103060.22;5061503;28;20036;-73
2022/07/08 01:03:13;;;;;;;0.80;0.60;;;;;;;12.19;100.00;103063.31;5045810;28;20040;-75
2022/07/08 01:05:39;;;;;;;1.20;0.60;;;;;;;12.20;100.00;103064.16;5048558;28;20037;-74
2022/07/08 01:08:05;;;;;;;0.90;0.70;;;;;;;12.24;100.00;103068.31;5027367;28;20032;-75
2022/07/08 01:10:31;;;;;;;1.98;0.80;;;;;;;12.17;100.00;103064.41;5032018;28;20481;-74
2022/07/08 01:12:57;;;;;;;1.25;0.70;;;;;;;12.16;100.00;103051.94;5032010;28;20094;-74
2022/07/08 01:15:23;;;;;;;0.50;0.50;;;;;;;12.19;100.00;103066.00;5060323;28;20036;-75
2022/07/08 01:17:51;;;;;;;1.20;0.60;;;;;;;12.11;100.00;103055.00;5026628;28;20032;-74
2022/07/08 01:20:17;;;;;;;0.70;0.50;;;;;;;12.09;100.00;103052.47;5039006;28;20047;-75
2022/07/08 01:22:43;;;;;;;0.88;0.60;;;;;;;12.04;100.00;103051.09;5053680;28;20037;-75
2022/07/08 01:25:10;;;;;;;1.23;0.75;;;;;;;12.01;100.00;103048.69;5045170;28;20024;-75
2022/07/08 01:27:36;;;;;;;1.88;0.60;;;;;;;11.95;100.00;103050.06;5065192;28;20025;-74
2022/07/08 01:30:03;;;;;;;1.17;0.70;;;;;;;11.99;100.00;103050.66;5063134;28;20074;-75
2022/07/08 01:32:33;;;;;;;1.45;0.90;;;;;;;11.97;100.00;103042.69;5063492;28;20036;-74
2022/07/08 01:34:59;;;;;;;2.53;0.90;;;;;;;11.98;100.00;103054.34;5035474;28;20393;-74
2022/07/08 01:37:25;;;;;;;1.63;0.95;;;;;;;11.99;100.00;103050.66;5065772;28;20024;-74
2022/07/08 01:39:51;;;;;;;3.30;1.15;;;;;;;11.97;100.00;103058.88;5028546;28;20040;-74
2022/07/08 01:42:16;;;;;;;2.92;1.38;;;;;;;11.97;100.00;103050.78;5049568;28;20028;-74
2022/07/08 01:44:42;;;;;;;3.78;1.55;;;;;;;11.98;100.00;103051.63;5036138;28;20036;-74
2022/07/08 01:47:08;;;;;;;2.92;1.45;;;;;;;11.94;100.00;103042.09;5068209;28;20029;-74
2022/07/08 01:49:33;;;;;;;4.35;1.63;;;;;;;11.99;100.00;103051.53;5060256;28;20051;-73
2022/07/08 01:51:59;;;;;;;3.17;1.80;;;;;;;12.06;100.00;103057.22;5030500;28;20035;-73
2022/07/08 01:54:25;;;;;;;4.35;1.67;;;;;;;12.04;100.00;103060.09;5035482;28;20374;-74
2022/07/08 01:57:13;;;;;;;3.65;1.60;;;;;;;12.02;100.00;103055.81;5032703;28;20513;-74
2022/07/08 01:59:36;;;;;;;3.42;1.60;;;;;;;12.01;100.00;103059.47;5056934;28;20130;-75
2022/07/08 02:02:03;;;;;;;6.03;1.58;;;;;;;12.00;100.00;103064.00;5050057;28;20071;-74
2022/07/08 02:04:29;;;;;;;3.92;1.80;;;;;;;12.03;100.00;103058.34;5049786;28;20067;-74
2022/07/08 02:06:54;;;;;;;4.53;2.03;;;;;;;12.00;100.00;103052.38;5058600;28;20024;-75
2022/07/08 02:09:20;;;;;;;5.13;1.88;;;;;;;12.03;100.00;103052.94;5047758;28;20028;-74
2022/07/08 02:14:30;;;;;;;6.03;2.15;;;;;;;12.08;100.00;103066.91;5039938;28;20091;-75
2022/07/08 02:16:56;;;;;;;5.30;1.90;;;;;;;12.10;100.00;103056.84;5050832;28;20046;-75
2022/07/08 02:19:21;;;;;;;4.05;1.88;;;;;;;12.13;100.00;103049.50;5031347;28;20390;-75
2022/07/08 02:21:47;;;;;;;6.25;2.00;;;;;;;12.07;100.00;103043.63;5044924;28;20675;-75
2022/07/08 02:24:13;;;;;;;5.07;2.45;;;;;;;12.12;100.00;103054.03;5042247;28;20437;-76
2022/07/08 02:26:39;;;;;;;5.13;2.05;;;;;;;12.11;100.00;103052.31;5035345;28;20067;-74
2022/07/08 02:29:05;;;;;;;5.63;2.13;;;;;;;12.14;100.00;103053.88;5038553;28;20102;-75
2022/07/08 02:31:31;;;;;;;5.88;2.20;;;;;;;12.14;100.00;103048.50;5027238;28;20131;-75
2022/07/08 02:33:56;;;;;;;7.20;2.15;;;;;;;12.12;100.00;103045.94;5046063;28;20738;-75
2022/07/08 02:36:22;;;;;;;4.45;1.65;;;;;;;12.17;100.00;103045.53;5046103;28;20032;-75
2022/07/08 02:38:48;;;;;;;2.22;1.30;;;;;;;12.21;100.00;103047.00;5072715;28;20036;-74
2022/07/08 02:41:14;;;;;;;2.90;1.67;;;;;;;12.18;100.00;103044.56;5049990;28;20444;-74
2022/07/08 02:43:39;;;;;;;3.95;1.80;;;;;;;12.14;100.00;103043.94;5047211;28;20245;-73
2022/07/08 02:46:05;;;;;;;3.72;1.15;;;;;;;12.07;100.00;103043.63;5031382;28;20068;-74
2022/07/08 02:48:31;;;;;;;2.38;1.15;;;;;;;12.04;100.00;103051.09;5031154;28;20040;-74
2022/07/08 02:50:57;;;;;;;2.00;0.90;;;;;;;12.00;100.00;103055.06;5049052;28;20051;-74
2022/07/08 02:53:23;;;;;;;1.80;1.00;;;;;;;11.83;100.00;103030.34;5036190;28;20040;-74
2022/07/08 02:55:49;;;;;;;1.75;0.95;;;;;;;11.83;100.00;103043.81;5068564;28;20086;-73
2022/07/08 02:58:17;;;;;;;2.75;1.00;;;;;;;11.77;100.00;103041.63;5046129;28;20041;-74
2022/07/08 03:00:43;;;;;;;2.80;1.00;;;;;;;11.75;100.00;103034.66;5034031;28;20043;-76
2022/07/08 03:03:09;;;;;;;1.45;0.90;;;;;;;11.79;100.00;103042.34;5047270;28;20041;-73
2022/07/08 03:05:35;;;;;;;1.77;0.90;;;;;;;11.80;100.00;103037.81;5049975;28;20112;-74
2022/07/08 03:08:00;;;;;;;2.10;1.00;;;;;;;11.82;100.00;103039.41;5061490;28;20039;-74
2022/07/08 03:10:26;;;;;;;5.10;1.30;;;;;;;11.87;100.00;103048.00;5051629;28;20037;-75
2022/07/08 03:12:51;;;;;;;3.58;1.05;;;;;;;11.96;100.00;103053.59;5057880;28;20393;-75
2022/07/08 03:15:17;;;;;;;1.63;0.77;;;;;;;11.93;100.00;103040.38;5048945;28;20041;-73
2022/07/08 03:17:43;;;;;;;1.77;0.80;;;;;;;12.01;100.00;103054.94;5032316;28;20123;-74
2022/07/08 03:20:09;;;;;;;1.70;0.90;;;;;;;11.99;100.00;103043.44;5029882;28;20473;-74
2022/07/08 03:22:35;;;;;;;3.08;0.85;;;;;;;12.00;100.00;103039.75;5049633;28;20037;-75
2022/07/08 03:25:01;;;;;;;4.03;0.60;;;;;;;12.02;100.00;103039.63;5037519;28;20036;-74
2022/07/08 03:27:26;;;;;;;1.25;0.60;;;;;;;12.02;100.00;103047.72;5050494;28;20542;-74
2022/07/08 03:29:52;;;;;;;1.13;0.68;;;;;;;11.99;100.00;103039.88;5063717;28;20036;-74
2022/07/08 03:32:17;;;;;;;0.93;0.60;;;;;;;11.97;100.00;103049.94;5029589;28;20040;-74
2022/07/08 03:34:43;;;;;;;0.80;0.55;;;;;;;11.91;100.00;103047.72;5043330;28;20393;-75
2022/07/08 03:37:09;;;;;;;0.98;0.40;;;;;;;11.85;100.00;103035.59;5063361;28;20033;-74
2022/07/08 03:39:34;;;;;;;0.70;0.45;;;;;;;11.90;100.00;103046.03;5031876;28;20075;-74
2022/07/08 03:42:00;;;;;;;0.80;0.57;;;;;;;11.91;100.00;103056.69;5062354;28;20068;-74
2022/07/08 03:44:26;;;;;;;0.73;0.70;;;;;;;11.88;100.00;103051.53;5047972;28;20044;-75
2022/07/08 03:46:51;;;;;;;1.00;0.70;;;;;;;11.85;100.00;103049.94;5057422;28;20036;-74
2022/07/08 03:49:17;;;;;;;1.23;0.60;;;;;;;11.86;100.00;103053.53;5044770;28;20083;-75
2022/07/08 03:51:43;;;;;;;0.82;0.55;;;;;;;11.80;100.00;103044.09;5048382;28;20040;-74
2022/07/08 03:54:09;;;;;;;0.98;0.68;;;;;;;11.79;100.00;103045.06;5059727;28;20178;-74
2022/07/08 03:56:35;;;;;;;0.80;0.52;;;;;;;11.86;100.00;103058.91;5061784;28;20029;-74
2022/07/08 03:59:01;;;;;;;1.25;0.70;;;;;;;11.90;100.00;103064.91;5041224;28;20028;-74
2022/07/08 04:01:26;;;;;;;1.27;0.65;;;;;;;11.83;100.00;103056.47;5027782;28;20040;-74
2022/07/08 04:03:52;;;;;;;1.23;0.65;;;;;;;11.78;100.00;103045.19;5049938;28;20044;-74
2022/07/08 04:06:18;;;;;;;1.38;0.80;;;;;;;11.86;100.00;103057.06;5061100;28;20029;-74
2022/07/08 04:08:44;;;;;;;1.02;0.65;;;;;;;11.90;100.00;103059.50;5068031;28;20137;-74
2022/07/08 04:11:10;;;;;;;1.67;0.65;;;;;;;11.88;100.00;103060.50;5029411;28;20502;-74
2022/07/08 04:13:39;;;;;;;1.77;0.85;;;;;;;11.88;100.00;103057.81;5064911;28;20467;-74
2022/07/08 04:16:10;;;;;;;1.65;0.90;;;;;;;11.87;100.00;103058.78;5047276;28;20028;-74
2022/07/08 04:18:36;;;;;;;2.28;0.95;;;;;;;11.84;100.00;103048.22;5046294;28;20079;-74
2022/07/08 04:21:02;;;;;;;3.08;1.23;;;;;;;11.82;100.00;103043.94;5043026;28;20188;-74
2022/07/08 04:23:28;;;;;;;0.98;0.68;;;;;;;11.85;100.00;103055.34;5048292;28;20025;-75
2022/07/08 04:25:53;;;;;;;1.45;0.90;;;;;;;11.86;100.00;103054.38;5065281;28;20029;-74
2022/07/08 04:28:21;;;;;;;1.25;0.80;;;;;;;11.83;100.00;103053.75;5053947;28;20299;-73
2022/07/08 04:30:47;;;;;;;3.05;1.10;;;;;;;11.82;100.00;103066.34;5047099;28;20028;-73
2022/07/08 04:33:15;;;;;;;1.65;1.00;;;;;;;11.81;100.00;103059.25;5065602;28;20090;-74
2022/07/08 04:35:41;;;;;;;2.75;0.90;;;;;;;11.85;100.00;103063.44;5045454;28;20132;-73
2022/07/08 04:38:06;;;;;;;1.70;1.10;;;;;;;11.94;100.00;103069.06;5029092;28;20120;-73
2022/07/08 04:40:32;;;;;;;2.33;0.90;;;;;;;11.94;100.00;103056.44;5027726;28;20025;-74
2022/07/08 04:42:58;;;;;;;1.58;0.88;;;;;;;11.98;100.00;103065.97;5065589;28;20028;-74
2022/07/08 04:45:24;;;;;;;1.30;0.82;;;;;;;12.06;100.00;103074.25;5032993;28;20035;-74
2022/07/08 04:47:50;;;;;;;3.00;1.20;;;;;;;12.08;100.00;103068.75;5072263;28;20043;-74
2022/07/08 04:50:16;;;;;;;2.80;1.10;;;;;;;11.88;100.00;103030.84;5063631;28;20058;-74
2022/07/08 04:52:42;;;;;;;2.90;1.30;;;;;;;12.14;100.00;103059.28;5049828;28;20371;-73
2022/07/08 04:55:08;;;;;;;1.92;0.93;;;;;;;12.29;100.00;103064.22;5062148;28;20085;-75
2022/07/08 04:57:34;;;;;;;2.50;1.50;;;;;;;12.38;100.00;103072.53;5032339;28;20032;-75
2022/07/08 05:00:00;;;;;;;3.35;1.60;;;;;;;12.37;100.00;103060.88;5053205;28;20040;-74
2022/07/08 05:02:29;;;;;;;2.88;1.40;;;;;;;12.43;100.00;103064.91;5046132;28;20038;-74
2022/07/08 05:04:55;;;;;;;4.03;1.33;;;;;;;12.47;100.00;103064.50;5069868;28;20044;-75
2022/07/08 05:07:20;;;;;;;3.95;1.60;;;;;;;12.52;100.00;103067.66;5032508;28;20045;-75
2022/07/08 05:09:46;;;;;;;2.90;1.33;;;;;;;12.43;100.00;103037.91;5025321;28;20033;-74
2022/07/08 05:12:11;;;;;;;3.50;1.50;;;;;;;12.64;100.00;103070.28;5049974;28;20452;-74
2022/07/08 05:14:37;;;;;;;3.08;1.90;;;;;;;12.65;100.00;103070.16;5049511;28;20551;-73
2022/07/08 05:17:03;;;;;;;4.72;1.70;;;;;;;12.67;100.00;103070.88;5051227;28;20108;-74
2022/07/08 05:19:28;;;;;;;4.97;1.42;;;;;;;12.65;100.00;103062.06;5049330;28;20028;-74
2022/07/08 05:21:54;;;;;;;2.70;1.33;;;;;;;12.65;100.00;103069.28;5042868;28;20048;-74
2022/07/08 05:24:20;;;;;;;3.25;1.38;;;;;;;12.70;100.00;103069.75;5060000;28;20090;-74
2022/07/08 05:26:45;;;;;;;2.28;1.38;;;;;;;12.70;100.00;103065.22;5052659;28;20042;-73
2022/07/08 05:29:11;;;;;;;3.22;1.40;;;;;;;12.81;100.00;103076.91;5043943;28;20416;-74
2022/07/08 05:31:37;;;;;;;4.20;1.20;;;;;;;12.87;100.00;103073.69;5032460;28;20520;-74
2022/07/08 05:34:02;;;;;;;0.93;0.77;;;;;;;12.82;100.00;103054.34;5033268;28;20048;-74
2022/07/08 05:36:29;;;;;;;1.52;0.90;;;;;;;12.88;100.00;103064.59;5047970;28;20371;-75
2022/07/08 05:38:54;;;;;;;0.70;0.50;;;;;;;12.97;100.00;103075.44;5058527;28;20486;-74
2022/07/08 05:41:20;;;;;;;2.20;0.90;;;;;;;12.99;100.00;103072.59;5061636;28;20040;-75
2022/07/08 05:43:46;;;;;;;1.25;0.70;;;;;;;12.97;100.00;103080.84;5024643;28;20074;-74
2022/07/08 05:46:12;;;;;;;1.10;0.60;;;;;;;12.97;100.00;103080.84;5039381;28;20036;-74
2022/07/08 05:48:37;;;;;;;1.65;0.73;;;;;;;12.94;100.00;103075.72;5034405;28;20029;-74
2022/07/08 05:51:03;;;;;;;0.73;0.60;;;;;;;12.99;100.00;103080.69;5048976;28;20027;-74
2022/07/08 05:53:29;;;;;;;1.00;0.80;;;;;;;13.03;100.00;103079.44;5032054;28;20540;-76
2022/07/08 05:55:57;;;;;;;1.77;0.80;;;;;;;13.05;100.00;103072.06;5032082;28;20035;-74
2022/07/08 05:58:22;;;;;;;1.73;0.80;;;;;;;13.15;100.00;103088.31;5022274;28;20040;-74
2022/07/08 06:00:48;;;;;;;1.35;0.50;;;;;;;13.26;100.00;103090.03;5023223;28;20051;-74
2022/07/08 06:03:14;;;;;;;1.05;0.50;;;;;;;13.35;100.00;103082.03;5057975;28;20044;-73
2022/07/08 06:05:39;;;;;;;1.60;0.60;;;;;;;13.41;100.00;103077.91;5026339;28;20029;-74
2022/07/08 06:08:05;;;;;;;0.88;0.60;;;;;;;13.48;100.00;103078.22;5043141;28;20043;-74
2022/07/08 06:10:31;;;;;;;1.88;0.70;;;;;;;13.49;100.00;103075.38;5053626;28;20064;-74
2022/07/08 06:12:57;;;;;;;0.60;0.60;;;;;;;13.61;100.00;103068.00;5046456;28;20035;-74
2022/07/08 06:15:22;;;;;;;0.95;0.70;;;;;;;13.62;100.00;103075.97;5064256;28;20024;-74
2022/07/08 06:17:48;;;;;;;1.10;0.85;;;;;;;13.58;100.00;103058.34;5067537;28;20385;-74
2022/07/08 06:20:14;;;;;;;1.15;0.70;;;;;;;13.71;100.00;103068.03;5060453;28;20470;-74
2022/07/08 06:22:40;;;;;;;0.80;0.70;;;;;;;13.77;100.00;103071.03;5050297;28;20447;-73
2022/07/08 06:25:06;;;;;;;1.55;0.80;;;;;;;13.80;100.00;103068.03;5051792;28;20401;-73
2022/07/08 06:27:32;;;;;;;1.15;0.80;;;;;;;13.79;100.00;103066.34;5046481;28;20024;-74
2022/07/08 06:29:58;;;;;;;1.88;0.98;;;;;;;13.81;100.00;103074.28;5036347;28;20074;-74
2022/07/08 06:32:23;;;;;;;0.82;0.60;;;;;;;14.02;100.00;103068.75;5044900;28;20038;-74
2022/07/08 06:34:49;;;;;;;1.08;0.60;;;;;;;14.40;100.00;103076.00;5057773;28;20056;-74
2022/07/08 06:37:15;;;;;;;0.95;0.60;;;;;;;14.90;100.00;103072.22;5058165;28;20106;-75
2022/07/08 06:39:41;;;;;;;0.60;0.52;;;;;;;15.39;100.00;103072.84;5033181;28;20044;-73
2022/07/08 06:42:07;;;;;;;0.50;0.50;;;;;;;15.70;100.00;103076.13;5026288;28;20071;-73
2022/07/08 06:44:32;;;;;;;2.20;0.70;;;;;;;15.56;100.00;103084.75;5024673;28;20349;-75
2022/07/08 06:46:58;;;;;;;0.82;0.60;;;;;;;15.40;100.00;103074.56;5032411;28;20045;-75
2022/07/08 06:49:24;;;;;;;2.60;0.70;;;;;;;15.29;100.00;103070.19;5028482;28;20037;-75
2022/07/08 06:51:49;;;;;;;0.93;0.68;;;;;;;15.20;100.00;103067.53;5035655;28;20047;-73
2022/07/08 06:56:59;;;;;;;0.90;0.60;;;;;;;15.25;100.00;103079.63;5058065;28;20028;-74
2022/07/08 06:59:25;;;;;;;0.60;0.60;;;;;;;15.24;100.00;103080.66;5063355;28;20389;-73
2022/07/08 07:01:52;;;;;;;0.98;0.70;;;;;;;15.39;100.00;103078.25;5046950;28;20040;-73
2022/07/08 07:04:18;;;;;;;1.50;0.60;;;;;;;15.61;95.99;103075.16;5029046;28;20577;-73
2022/07/08 07:06:44;;;;;;;0.65;0.60;;;;;;;15.79;94.98;103080.59;5048663;28;20115;-73
2022/07/08 07:09:10;;;;;;;1.33;0.70;;;;;;;16.86;91.82;103062.50;5049336;28;20040;-74
2022/07/08 07:11:38;;;;;;;0.60;0.60;;;;;;;18.76;82.24;103074.47;5029048;28;20084;-74
2022/07/08 07:14:04;;;;;;;0.60;0.60;;;;;;;19.83;74.98;103071.28;5034436;28;21653;-73
2022/07/08 07:16:29;;;;;;;0.57;0.57;;;;;;;20.20;73.53;103074.03;5053460;28;20029;-72
2022/07/08 07:18:58;;;;;;;1.05;0.70;;;;;;;20.38;66.93;103071.00;5054416;28;20047;-73
2022/07/08 07:21:23;;;;;;;0.65;0.63;;;;;;;20.74;64.02;103074.94;5052746;28;20028;-74
2022/07/08 07:23:49;;;;;;;0.80;0.70;;;;;;;20.34;66.32;103072.38;5037665;28;20044;-73
2022/07/08 07:26:15;;;;;;;0.70;0.70;;;;;;;20.57;65.84;103069.66;5041778;28;20383;-73
2022/07/08 07:28:44;;;;;;;1.17;0.80;;;;;;;19.94;68.69;103073.56;5040227;28;20068;-73
2022/07/08 07:31:10;;;;;;;1.38;0.95;;;;;;;19.52;68.87;103074.81;5052093;28;20032;-73
2022/07/08 07:33:36;;;;;;;1.45;0.90;;;;;;;19.26;70.30;103075.13;5046911;28;20055;-73
2022/07/08 07:36:02;;;;;;;2.08;1.00;;;;;;;19.13;68.49;103075.69;5041460;28;20101;-73
2022/07/08 07:38:28;;;;;;;1.58;0.95;;;;;;;18.98;72.05;103072.84;5035802;28;20037;-74
2022/07/08 07:40:54;;;;;;;1.00;0.90;;;;;;;20.23;67.98;103070.09;5058167;28;20047;-74
2022/07/08 07:43:19;;;;;;;2.30;1.02;;;;;;;20.29;67.66;103068.50;5051571;28;20206;-73
2022/07/08 07:45:45;;;;;;;1.50;1.00;;;;;;;20.50;65.90;103071.38;5023697;28;20058;-74
2022/07/08 07:48:13;;;;;;;1.17;0.90;;;;;;;20.18;65.68;103072.53;5027776;28;20040;-73
2022/07/08 07:50:39;;;;;;;1.50;1.20;;;;;;;19.37;68.63;103077.47;5064157;28;20036;-75
2022/07/08 07:53:05;;;;;;;0.73;0.65;;;;;;;18.69;72.19;103073.41;5027377;28;20036;-74
2022/07/08 07:55:31;;;;;;;2.75;1.00;;;;;;;18.71;72.17;103076.81;5032405;28;20086;-74
2022/07/08 07:57:56;;;;;;;1.50;1.00;;;;;;;19.53;68.12;103077.38;5029105;28;20290;-72
2022/07/08 08:00:22;;;;;;;1.65;0.90;;;;;;;19.71;67.90;103079.88;5021426;28;20055;-76
2022/07/08 08:02:48;;;;;;;0.65;0.65;;;;;;;19.92;63.88;103075.63;5050210;28;20051;-73
2022/07/08 08:05:25;;;;;;;1.65;0.98;;;;;;;20.17;66.05;103090.81;5043077;28;20535;-73
2022/07/08 08:07:51;;;;;;;1.58;1.10;;;;;;;21.01;64.46;103074.31;5032403;28;20089;-75
2022/07/08 08:10:16;;;;;;;3.20;1.05;;;;;;;21.15;63.65;103079.94;5030076;28;20033;-76
2022/07/08 08:12:42;;;;;;;1.50;1.00;;;;;;;20.81;63.47;103084.09;5045464;28;20048;-78
2022/07/08 08:15:09;;;;;;;1.20;0.90;;;;;;;20.18;65.12;103047.94;5055101;28;20032;-77
2022/07/08 08:17:38;;;;;;;1.05;0.80;;;;;;;19.73;68.30;103075.06;5034086;28;20131;-75
2022/07/08 08:20:09;;;;;;;1.35;1.00;;;;;;;19.53;69.52;103085.56;5067011;28;20493;-76
2022/07/08 08:22:35;;;;;;;1.52;0.95;;;;;;;19.92;69.06;103083.81;5059937;28;20398;-77
2022/07/08 08:25:00;;;;;;;1.33;1.00;;;;;;;20.00;68.22;103089.22;5037176;28;20038;-76
2022/07/08 08:27:27;;;;;;;1.30;0.98;;;;;;;19.91;67.41;103084.88;5058587;28;20112;-76
2022/07/08 08:29:53;;;;;;;2.20;0.90;;;;;;;19.74;66.76;103093.16;5059820;28;20044;-78
2022/07/08 08:32:18;;;;;;;2.05;1.10;;;;;;;19.73;67.12;103087.88;5046661;28;20425;-76
2022/07/08 08:34:44;;;;;;;5.65;0.90;;;;;;;19.66;68.55;103082.31;5057976;28;20143;-76
2022/07/08 08:37:10;;;;;;;1.35;0.90;;;;;;;20.07;67.48;103084.75;5064938;28;20025;-77
2022/07/08 08:39:35;;;;;;;1.17;0.93;;;;;;;21.54;62.97;103078.78;5050643;28;20117;-76
2022/07/08 08:42:05;;;;;;;1.20;0.70;;;;;;;21.55;62.53;103089.53;5058901;28;20034;-76
2022/07/08 08:44:31;;;;;;;3.03;0.90;;;;;;;21.11;62.07;103092.31;5046066;28;20210;-78
2022/07/08 08:46:56;;;;;;;1.20;0.90;;;;;;;20.96;61.42;103084.97;5046328;28;20576;-75
2022/07/08 08:49:22;;;;;;;1.30;0.90;;;;;;;21.51;61.32;103088.22;5073028;28;20060;-75
2022/07/08 08:51:49;;;;;;;5.18;1.10;;;;;;;21.52;60.98;103085.28;5042593;28;20048;-75
2022/07/08 08:54:17;;;;;;;1.15;0.90;;;;;;;21.50;61.35;103073.69;5052771;28;20128;-75
2022/07/08 08:56:44;;;;;;;1.30;0.90;;;;;;;21.50;61.02;103079.16;5048647;28;20025;-75
2022/07/08 08:59:10;;;;;;;0.95;0.75;;;;;;;21.27;61.86;103082.00;5046466;28;20119;-76
2022/07/08 09:01:35;;;;;;;1.25;0.80;;;;;;;21.41;60.56;103090.44;5031400;28;20115;-75
2022/07/08 09:04:02;;;;;;;2.20;0.90;;;;;;;21.24;60.57;103087.84;5024836;28;20037;-76
2022/07/08 09:06:28;;;;;;;0.82;0.70;;;;;;;21.04;60.37;103089.50;5027574;28;20041;-77
2022/07/08 09:08:54;;;;;;;1.33;0.90;;;;;;;21.57;60.79;103082.00;5081374;28;20197;-75
2022/07/08 09:11:19;;;;;;;0.73;0.70;;;;;;;22.14;58.22;103083.81;5068268;28;20021;-75
2022/07/08 09:14:17;;;;;;;1.60;0.90;;;;;;;21.95;59.41;103090.81;5053379;28;20412;-76
2022/07/08 09:17:12;;;;;;;2.08;1.02;;;;;;;21.22;61.85;103086.34;5043400;28;20389;-76
2022/07/08 09:19:41;;;;;;;1.15;0.98;;;;;;;20.17;64.93;103040.78;5060127;28;20097;-78
2022/07/08 09:22:09;;;;;;;0.98;0.75;;;;;;;20.59;64.53;103077.66;5051121;28;20512;-78
2022/07/08 09:24:39;;;;;;;1.10;1.00;;;;;;;21.10;62.86;103079.66;5066718;28;20031;-75
2022/07/08 09:27:12;;;;;;;2.17;1.10;;;;;;;22.57;56.19;103080.22;5067855;28;20033;-75
2022/07/08 09:29:39;;;;;;;1.20;1.02;;;;;;;22.91;55.01;103078.53;5065273;28;20040;-76
2022/07/08 09:32:12;;;;;;;1.35;1.00;;;;;;;22.51;56.13;103081.00;5062927;28;20033;-76
2022/07/08 09:34:38;;;;;;;1.05;0.90;;;;;;;22.03;57.81;103069.81;5048102;28;20529;-76
2022/07/08 09:37:17;;;;;;;1.27;1.00;;;;;;;21.84;58.83;103074.06;5064756;28;20389;-77
2022/07/08 09:39:44;;;;;;;1.20;0.90;;;;;;;21.86;59.52;103080.22;5050584;28;20060;-79
2022/07/08 09:42:13;;;;;;;1.50;1.13;;;;;;;22.05;59.23;103073.22;5064212;28;20079;-75
2022/07/08 09:44:54;;;;;;;1.23;1.00;;;;;;;22.39;57.97;103075.25;5070889;28;20209;-79
2022/07/08 09:47:20;;;;;;;1.33;1.13;;;;;;;22.67;56.47;103077.13;5033188;28;20032;-78
2022/07/08 09:49:48;;;;;;;1.77;1.30;;;;;;;22.91;56.09;103078.53;5038949;28;20032;-75
2022/07/08 09:52:23;;;;;;;1.60;1.38;;;;;;;24.61;50.38;103061.06;5037657;28;20044;-78
2022/07/08 09:55:08;;;;;;;1.60;1.30;;;;;;;25.57;47.57;103078.75;5055646;28;20024;-75
2022/07/08 09:57:34;;;;;;;1.67;1.20;;;;;;;26.02;44.75;103082.31;5052734;28;20037;-76
2022/07/08 10:00:00;;;;;;;1.30;1.20;;;;;;;25.78;44.64;103075.66;5042195;28;20115;-75
2022/07/08 10:02:28;;;;;;;1.35;1.25;;;;;;;25.25;46.75;103086.13;5072379;28;20104;-75
2022/07/08 10:04:55;;;;;;;1.00;0.90;;;;;;;24.31;49.09;103083.44;5070569;28;20036;-76
2022/07/08 10:07:20;;;;;;;1.10;1.00;;;;;;;23.54;52.03;103067.47;5035802;28;20039;-78
2022/07/08 10:09:46;;;;;;;2.33;1.50;;;;;;;24.14;51.73;103073.94;5052833;28;20029;-76
2022/07/08 10:12:14;;;;;;;2.90;1.40;;;;;;;23.99;50.75;103085.13;5040135;28;20032;-77
2022/07/08 10:14:42;;;;;;;1.30;1.20;;;;;;;23.66;52.94;103072.16;5052594;28;20397;-77
2022/07/08 10:17:09;;;;;;;1.63;1.13;;;;;;;23.56;52.48;103077.19;5054734;28;20028;-78
2022/07/08 10:19:40;;;;;;;1.98;1.20;;;;;;;23.21;54.30;103069.03;5050803;28;20120;-77
2022/07/08 10:22:06;;;;;;;1.50;1.30;;;;;;;22.69;56.68;103066.81;5049938;28;20509;-77
2022/07/08 10:24:33;;;;;;;1.13;0.93;;;;;;;22.86;54.60;103083.78;5054383;28;20036;-79
2022/07/08 10:27:01;;;;;;;1.48;0.93;;;;;;;22.65;56.52;103073.72;5038133;28;20032;-77
2022/07/08 10:29:31;;;;;;;1.60;1.20;;;;;;;22.43;57.76;103071.03;5039351;28;20028;-76
2022/07/08 10:31:58;;;;;;;2.10;1.10;;;;;;;22.34;58.53;103080.47;5046967;28;20520;-78
2022/07/08 10:34:36;;;;;;;1.88;1.20;;;;;;;22.14;59.48;103072.03;5037006;28;20419;-79
2022/07/08 10:37:03;;;;;;;1.73;1.02;;;;;;;22.25;59.78;103085.22;5038550;28;20167;-77
2022/07/08 10:39:40;;;;;;;1.73;1.30;;;;;;;22.78;58.13;103079.31;5068309;28;20044;-76
2022/07/08 10:42:08;;;;;;;1.70;1.60;;;;;;;24.20;55.08;103077.75;5053125;28;20036;-76
2022/07/08 10:44:43;;;;;;;1.55;1.02;;;;;;;24.73;49.76;103081.34;5068960;28;20672;-77
2022/07/08 10:47:32;;;;;;;1.77;1.10;;;;;;;23.91;51.66;103085.31;5062384;28;20032;-79
2022/07/08 10:50:04;;;;;;;2.00;1.00;;;;;;;23.54;54.28;103094.94;5047388;28;20036;-77
2022/07/08 10:52:38;;;;;;;1.63;1.35;;;;;;;23.91;52.19;103074.34;5068826;28;20032;-77
2022/07/08 10:55:15;;;;;;;1.50;1.40;;;;;;;24.17;52.27;103091.94;5052056;28;20040;-78
2022/07/08 10:57:58;;;;;;;1.95;1.30;;;;;;;24.26;51.75;103094.25;5072738;28;20033;-77
2022/07/08 11:00:23;;;;;;;;;;;;;;;24.16;51.39;103087.47;5073579;28;20025;-77
2022/07/08 11:02:50;;;;;;;1.33;1.10;;;;;;;23.86;52.00;103080.44;5039029;28;19923;-77
2022/07/08 11:05:36;;;;;;;1.67;1.17;;;;;;;23.44;54.07;103084.31;5041951;28;20028;-76
2022/07/08 11:08:20;;;;;;;1.45;1.20;;;;;;;23.54;53.41;103081.19;5038560;28;20043;-77
2022/07/08 11:10:47;;;;;;;1.77;1.38;;;;;;;24.25;51.01;103078.81;5073759;28;20131;-77
2022/07/08 11:13:13;;;;;;;1.10;1.00;;;;;;;24.26;50.03;103075.00;5068512;28;20037;-77
2022/07/08 11:15:39;;;;;;;1.55;1.20;;;;;;;23.72;51.94;103078.75;5038497;28;20435;-76
2022/07/08 11:18:07;;;;;;;1.30;1.20;;;;;;;23.53;52.93;103074.84;5032224;28;20044;-77
2022/07/08 11:20:35;;;;;;;1.10;0.90;;;;;;;23.15;54.92;103075.31;5037002;28;20084;-78
2022/07/08 11:23:05;;;;;;;2.30;1.20;;;;;;;23.31;55.84;103078.78;5072694;28;20028;-77
2022/07/08 11:25:31;;;;;;;1.23;1.00;;;;;;;24.33;52.41;103072.25;5034961;28;20044;-76